Time,TemperatureF,DewpointF,PressureIn,WindDirection,WindDirectionDegrees,WindSpeedMPH,WindSpeedGustMPH,Humidity,HourlyPrecipIn,Conditions,Clouds,dailyrainin,SolarRadiationWatts/m^2,SoftwareType,DateUTC
2013-09-05 00:01:00,50.0,48.0,-100.00,SSW,203,11.0,27.0,94,0.00,,,0.00,0.000000,,2013-09-05 07:01:00,
2013-09-05 00:12:00,51.0,49.0,-100.00,SE,142,4.0,15.0,93,0.00,,,0.00,0.000000,,2013-09-05 07:12:00,
2013-09-05 00:42:00,51.0,49.0,-100.00,SE,142,4.0,15.0,93,0.00,,,0.00,0.000000,,2013-09-05 07:42:00,
2013-09-05 00:52:00,51.0,49.0,-100.00,SE,142,4.0,15.0,93,0.00,,,0.00,0.000000,,2013-09-05 07:52:00,
2013-09-05 01:03:00,51.0,49.0,-100.00,SE,142,4.0,15.0,93,0.00,,,0.00,0.000000,,2013-09-05 08:03:00,
2013-09-05 01:42:00,51.0,46.0,-100.00,ESE,113,3.0,13.0,84,0.00,,,0.00,0.000000,,2013-09-05 08:42:00,
2013-09-05 01:52:00,51.0,46.0,-100.00,ESE,113,3.0,13.0,84,0.00,,,0.00,0.000000,,2013-09-05 08:52:00,
2013-09-05 02:02:00,51.0,46.0,-100.00,ESE,113,3.0,13.0,84,0.00,,,0.00,0.000000,,2013-09-05 09:02:00,
2013-09-05 02:11:00,51.0,46.0,-100.00,ESE,113,3.0,13.0,84,0.00,,,0.00,0.000000,,2013-09-05 09:11:00,
2013-09-05 02:12:00,54.0,48.0,-100.00,SSE,149,4.0,12.0,79,0.00,,,0.00,0.000000,,2013-09-05 09:12:00,
2013-09-05 02:43:00,54.0,48.0,-100.00,SSE,149,4.0,12.0,79,0.00,,,0.00,0.000000,,2013-09-05 09:43:00,
2013-09-05 02:54:00,54.0,48.0,-100.00,SSE,149,4.0,12.0,79,0.00,,,0.00,0.000000,,2013-09-05 09:54:00,
2013-09-05 03:03:00,54.0,48.0,-100.00,SSE,149,4.0,12.0,79,0.00,,,0.00,0.000000,,2013-09-05 10:03:00,
2013-09-05 03:12:00,55.0,45.0,-100.00,SE,136,4.0,11.0,70,0.00,,,-99.99,0.000000,,2013-09-05 10:12:00,
2013-09-05 03:43:00,55.0,45.0,-100.00,SE,136,4.0,11.0,70,0.00,,,-99.99,0.000000,,2013-09-05 10:43:00,
2013-09-05 03:53:00,55.0,45.0,-100.00,SE,136,4.0,11.0,70,0.00,,,-99.99,0.000000,,2013-09-05 10:53:00,
2013-09-05 04:03:00,55.0,45.0,-100.00,SE,136,4.0,11.0,70,0.00,,,-99.99,0.000000,,2013-09-05 11:03:00,
2013-09-05 04:12:00,56.0,45.0,-100.00,SSE,152,4.0,10.0,66,0.00,,,0.00,0.000000,,2013-09-05 11:12:00,
2013-09-05 04:43:00,56.0,45.0,-100.00,SSE,152,4.0,10.0,66,0.00,,,0.00,0.000000,,2013-09-05 11:43:00,
2013-09-05 04:52:00,56.0,45.0,-100.00,SSE,152,4.0,10.0,66,0.00,,,0.00,0.000000,,2013-09-05 11:52:00,
2013-09-05 05:01:00,56.0,45.0,-100.00,SSE,152,4.0,10.0,66,0.00,,,0.00,0.000000,,2013-09-05 12:01:00,
2013-09-05 05:12:00,56.0,45.0,-100.00,East,100,3.0,9.0,66,0.00,,,-99.99,0.000000,,2013-09-05 12:12:00,
2013-09-05 05:42:00,56.0,45.0,-100.00,East,100,3.0,9.0,66,0.00,,,-99.99,0.000000,,2013-09-05 12:42:00,
2013-09-05 05:52:00,56.0,45.0,-100.00,East,100,3.0,9.0,66,0.00,,,-99.99,0.000000,,2013-09-05 12:52:00,
2013-09-05 06:01:00,56.0,45.0,-100.00,East,100,3.0,9.0,66,0.00,,,-99.99,0.000000,,2013-09-05 13:01:00,
2013-09-05 06:12:00,57.0,45.0,-100.00,SSE,163,5.0,9.0,63,0.00,,,0.00,0.000000,,2013-09-05 13:12:00,
2013-09-05 06:42:00,57.0,45.0,-100.00,SSE,163,5.0,9.0,63,0.00,,,0.00,0.000000,,2013-09-05 13:42:00,
2013-09-05 06:53:00,57.0,45.0,-100.00,SSE,163,5.0,9.0,63,0.00,,,0.00,0.000000,,2013-09-05 13:53:00,
2013-09-05 07:01:00,57.0,45.0,-100.00,SSE,163,5.0,9.0,63,0.00,,,0.00,0.000000,,2013-09-05 14:01:00,
2013-09-05 07:42:00,56.0,45.0,-100.00,SE,137,4.0,10.0,66,0.00,,,0.00,15.000000,,2013-09-05 14:42:00,
2013-09-05 07:52:00,56.0,45.0,-100.00,SE,137,4.0,10.0,66,0.00,,,0.00,15.000000,,2013-09-05 14:52:00,
2013-09-05 08:01:00,56.0,45.0,-100.00,SE,137,4.0,10.0,66,0.00,,,0.00,15.000000,,2013-09-05 15:01:00,
2013-09-05 08:11:00,56.0,45.0,-100.00,SE,137,4.0,10.0,66,0.00,,,0.00,15.000000,,2013-09-05 15:11:00,
2013-09-05 08:12:00,56.0,45.0,-100.00,SE,139,4.0,10.0,66,0.00,,,0.00,24.000000,,2013-09-05 15:12:00,
2013-09-05 08:44:00,56.0,45.0,-100.00,SE,139,4.0,10.0,66,0.00,,,0.00,24.000000,,2013-09-05 15:44:00,
2013-09-05 08:54:00,56.0,45.0,-100.00,SE,139,4.0,10.0,66,0.00,,,0.00,24.000000,,2013-09-05 15:54:00,
2013-09-05 09:03:00,56.0,45.0,-100.00,SE,139,4.0,10.0,66,0.00,,,0.00,24.000000,,2013-09-05 16:03:00,
2013-09-05 09:12:00,64.0,45.0,-100.00,South,185,6.0,12.0,51,0.00,,,0.00,397.000000,,2013-09-05 16:12:00,
2013-09-05 09:43:00,64.0,45.0,-100.00,South,185,6.0,12.0,51,0.00,,,0.00,397.000000,,2013-09-05 16:43:00,
2013-09-05 09:54:00,64.0,45.0,-100.00,South,185,6.0,12.0,51,0.00,,,0.00,397.000000,,2013-09-05 16:54:00,
2013-09-05 10:03:00,64.0,45.0,-100.00,South,185,6.0,12.0,51,0.00,,,0.00,397.000000,,2013-09-05 17:03:00,
2013-09-05 10:12:00,66.0,46.0,-100.00,SSW,197,6.0,14.0,48,0.00,,,0.00,619.000000,,2013-09-05 17:12:00,
2013-09-05 10:43:00,66.0,46.0,-100.00,SSW,197,6.0,14.0,48,0.00,,,0.00,619.000000,,2013-09-05 17:43:00,
2013-09-05 10:52:00,66.0,46.0,-100.00,SSW,197,6.0,14.0,48,0.00,,,0.00,619.000000,,2013-09-05 17:52:00,
2013-09-05 11:02:00,66.0,46.0,-100.00,SSW,197,6.0,14.0,48,0.00,,,0.00,619.000000,,2013-09-05 18:02:00,
2013-09-05 11:43:00,67.0,48.0,-100.00,WSW,243,7.0,18.0,50,0.00,,,0.00,756.000000,,2013-09-05 18:43:00,
2013-09-05 11:52:00,67.0,48.0,-100.00,WSW,243,7.0,18.0,50,0.00,,,0.00,756.000000,,2013-09-05 18:52:00,
2013-09-05 12:01:00,67.0,48.0,-100.00,WSW,243,7.0,18.0,50,0.00,,,0.00,756.000000,,2013-09-05 19:01:00,
2013-09-05 12:11:00,67.0,48.0,-100.00,WSW,243,7.0,18.0,50,0.00,,,0.00,756.000000,,2013-09-05 19:11:00,
2013-09-05 12:42:00,66.0,49.0,-100.00,SW,230,6.0,15.0,54,0.00,,,0.00,646.000000,,2013-09-05 19:42:00,
2013-09-05 12:52:00,66.0,49.0,-100.00,SW,230,6.0,15.0,54,0.00,,,0.00,646.000000,,2013-09-05 19:52:00,
2013-09-05 13:02:00,66.0,49.0,-100.00,SW,230,6.0,15.0,54,0.00,,,0.00,646.000000,,2013-09-05 20:02:00,
2013-09-05 13:11:00,66.0,49.0,-100.00,SW,230,6.0,15.0,54,0.00,,,0.00,646.000000,,2013-09-05 20:11:00,
2013-09-05 13:43:00,69.0,44.0,-100.00,SSW,193,7.0,15.0,40,0.00,,,-99.99,440.000000,,2013-09-05 20:43:00,
2013-09-05 13:52:00,69.0,44.0,-100.00,SSW,193,7.0,15.0,40,0.00,,,-99.99,440.000000,,2013-09-05 20:52:00,
2013-09-05 14:02:00,69.0,44.0,-100.00,SSW,193,7.0,15.0,40,0.00,,,-99.99,440.000000,,2013-09-05 21:02:00,
2013-09-05 14:11:00,69.0,44.0,-100.00,SSW,193,7.0,15.0,40,0.00,,,-99.99,440.000000,,2013-09-05 21:11:00,
2013-09-05 14:12:00,71.0,45.0,-100.00,SSW,194,9.0,21.0,40,0.00,,,-99.99,885.000000,,2013-09-05 21:12:00,
2013-09-05 14:44:00,71.0,45.0,-100.00,SSW,194,9.0,21.0,40,0.00,,,-99.99,885.000000,,2013-09-05 21:44:00,
2013-09-05 14:54:00,71.0,45.0,-100.00,SSW,194,9.0,21.0,40,0.00,,,-99.99,885.000000,,2013-09-05 21:54:00,
2013-09-05 15:04:00,71.0,45.0,-100.00,SSW,194,9.0,21.0,40,0.00,,,-99.99,885.000000,,2013-09-05 22:04:00,
2013-09-05 15:12:00,72.0,40.0,-100.00,WSW,238,11.0,27.0,31,0.00,,,0.00,675.000000,,2013-09-05 22:12:00,
2013-09-05 15:43:00,72.0,40.0,-100.00,WSW,238,11.0,27.0,31,0.00,,,0.00,675.000000,,2013-09-05 22:43:00,
2013-09-05 15:53:00,72.0,40.0,-100.00,WSW,238,11.0,27.0,31,0.00,,,0.00,675.000000,,2013-09-05 22:53:00,
2013-09-05 16:02:00,72.0,40.0,-100.00,WSW,238,11.0,27.0,31,0.00,,,0.00,675.000000,,2013-09-05 23:02:00,
2013-09-05 16:12:00,72.0,43.0,-100.00,SSW,207,9.0,20.0,35,0.00,,,0.00,700.000000,,2013-09-05 23:12:00,
2013-09-05 16:42:00,72.0,43.0,-100.00,SSW,207,9.0,20.0,35,0.00,,,0.00,700.000000,,2013-09-05 23:42:00,
2013-09-05 16:53:00,72.0,43.0,-100.00,SSW,207,9.0,20.0,35,0.00,,,0.00,700.000000,,2013-09-05 23:53:00,
2013-09-05 17:01:00,72.0,43.0,-100.00,SSW,207,9.0,20.0,35,0.00,,,0.00,700.000000,,2013-09-06 00:01:00,
2013-09-05 17:42:00,71.0,43.0,-100.00,SW,224,8.0,20.0,37,0.00,,,0.00,432.000000,,2013-09-06 00:42:00,
2013-09-05 17:52:00,71.0,43.0,-100.00,SW,224,8.0,20.0,37,0.00,,,0.00,432.000000,,2013-09-06 00:52:00,
2013-09-05 18:01:00,71.0,43.0,-100.00,SW,224,8.0,20.0,37,0.00,,,0.00,432.000000,,2013-09-06 01:01:00,
2013-09-05 18:11:00,71.0,43.0,-100.00,SW,224,8.0,20.0,37,0.00,,,0.00,432.000000,,2013-09-06 01:11:00,
2013-09-05 18:42:00,69.0,41.0,-100.00,SW,230,7.0,19.0,36,0.00,,,0.00,212.000000,,2013-09-06 01:42:00,
2013-09-05 18:52:00,69.0,41.0,-100.00,SW,230,7.0,19.0,36,0.00,,,0.00,212.000000,,2013-09-06 01:52:00,
2013-09-05 19:02:00,69.0,41.0,-100.00,SW,230,7.0,19.0,36,0.00,,,0.00,212.000000,,2013-09-06 02:02:00,
2013-09-05 19:11:00,69.0,41.0,-100.00,SW,230,7.0,19.0,36,0.00,,,0.00,212.000000,,2013-09-06 02:11:00,
2013-09-05 19:42:00,65.0,42.0,-100.00,SSW,203,5.0,16.0,43,0.00,,,0.00,55.000000,,2013-09-06 02:42:00,
2013-09-05 19:52:00,65.0,42.0,-100.00,SSW,203,5.0,16.0,43,0.00,,,0.00,55.000000,,2013-09-06 02:52:00,
2013-09-05 20:02:00,65.0,42.0,-100.00,SSW,203,5.0,16.0,43,0.00,,,0.00,55.000000,,2013-09-06 03:02:00,
2013-09-05 20:11:00,65.0,42.0,-100.00,SSW,203,5.0,16.0,43,0.00,,,0.00,55.000000,,2013-09-06 03:11:00,
2013-09-05 20:12:00,63.0,41.0,-100.00,SSW,192,5.0,18.0,45,0.00,,,0.00,0.000000,,2013-09-06 03:12:00,
2013-09-05 20:44:00,63.0,41.0,-100.00,SSW,192,5.0,18.0,45,0.00,,,0.00,0.000000,,2013-09-06 03:44:00,
2013-09-05 20:55:00,63.0,41.0,-100.00,SSW,192,5.0,18.0,45,0.00,,,0.00,0.000000,,2013-09-06 03:55:00,
2013-09-05 21:04:00,63.0,41.0,-100.00,SSW,192,5.0,18.0,45,0.00,,,0.00,0.000000,,2013-09-06 04:04:00,
2013-09-05 21:12:00,63.0,41.0,-100.00,South,172,6.0,20.0,44,0.00,,,0.00,0.000000,,2013-09-06 04:12:00,
2013-09-05 21:44:00,63.0,41.0,-100.00,South,172,6.0,20.0,44,0.00,,,0.00,0.000000,,2013-09-06 04:44:00,
2013-09-05 21:54:00,63.0,41.0,-100.00,South,172,6.0,20.0,44,0.00,,,0.00,0.000000,,2013-09-06 04:54:00,
2013-09-05 22:03:00,63.0,41.0,-100.00,South,172,6.0,20.0,44,0.00,,,0.00,0.000000,,2013-09-06 05:03:00,
2013-09-05 22:43:00,62.0,42.0,-100.00,SSE,167,8.0,20.0,48,0.00,,,0.00,0.000000,,2013-09-06 05:43:00,
2013-09-05 22:52:00,62.0,42.0,-100.00,SSE,167,8.0,20.0,48,0.00,,,0.00,0.000000,,2013-09-06 05:52:00,
2013-09-05 23:02:00,62.0,42.0,-100.00,SSE,167,8.0,20.0,48,0.00,,,0.00,0.000000,,2013-09-06 06:02:00,
2013-09-05 23:11:00,62.0,42.0,-100.00,SSE,167,8.0,20.0,48,0.00,,,0.00,0.000000,,2013-09-06 06:11:00,
2013-09-05 23:42:00,61.0,43.0,-100.00,SSE,150,7.0,21.0,52,0.00,,,0.00,0.000000,,2013-09-06 06:42:00,
2013-09-05 23:53:00,61.0,43.0,-100.00,SSE,150,7.0,21.0,52,0.00,,,0.00,0.000000,,2013-09-06 06:53:00,